createdAt,value
2022-09-05T00:00:17.880Z,2.60
2022-09-05T00:02:56.660Z,2.50
2022-09-05T00:05:49.564Z,2.40
2022-09-05T00:08:40.360Z,2.67
2022-09-05T00:11:15.438Z,2.60
2022-09-05T00:15:14.952Z,2.77
2022-09-05T00:17:22.164Z,2.70
2022-09-05T00:24:22.838Z,2.60
2022-09-05T00:24:26.773Z,2.50
2022-09-05T00:26:04.721Z,2.73
2022-09-05T00:28:43.319Z,2.60
2022-09-05T00:31:56.088Z,3.00
2022-09-05T00:34:47.141Z,2.53
2022-09-05T00:37:28.373Z,2.53
2022-09-05T00:40:17.329Z,2.47
2022-09-05T00:42:49.542Z,2.73
2022-09-05T00:45:25.152Z,2.63
2022-09-05T00:47:59.146Z,3.27
2022-09-05T00:50:35.376Z,2.60
2022-09-05T00:53:12.487Z,2.93
2022-09-05T00:55:49.425Z,2.60
2022-09-05T00:58:34.064Z,2.60
2022-09-05T01:01:10.686Z,2.27
2022-09-05T01:04:07.792Z,2.60
2022-09-05T01:06:52.751Z,2.60
2022-09-05T01:09:39.720Z,2.80
2022-09-05T01:12:32.678Z,2.70
2022-09-05T01:15:22.487Z,3.40
2022-09-05T01:18:10.873Z,2.83
2022-09-05T01:21:10.396Z,2.77
2022-09-05T01:23:55.559Z,2.47
2022-09-05T01:26:50.880Z,2.83
2022-09-05T01:29:27.203Z,2.97
2022-09-05T01:32:15.341Z,3.07
2022-09-05T01:35:01.711Z,2.63
2022-09-05T01:37:38.819Z,3.17
2022-09-05T01:40:20.605Z,2.77
2022-09-05T01:43:06.358Z,2.97
2022-09-05T01:45:49.347Z,2.93
2022-09-05T01:48:30.237Z,2.70
2022-09-05T01:51:28.794Z,2.50
2022-09-05T01:54:16.102Z,2.40
2022-09-05T01:57:01.513Z,2.63
2022-09-05T01:59:39.750Z,2.87
2022-09-05T02:02:37.556Z,2.77
2022-09-05T02:05:48.569Z,2.77
2022-09-05T02:08:46.830Z,3.10
2022-09-05T02:11:16.294Z,3.13
2022-09-05T02:14:09.778Z,3.30
2022-09-05T02:16:44.445Z,3.17
2022-09-05T02:19:22.684Z,2.77
2022-09-05T02:21:59.524Z,3.10
2022-09-05T02:24:35.875Z,3.17
2022-09-05T02:28:04.416Z,2.80
2022-09-05T02:30:24.484Z,2.77
2022-09-05T02:33:03.443Z,2.73
2022-09-05T02:35:40.316Z,2.90
2022-09-05T02:39:49.878Z,2.97
2022-09-05T02:45:08.248Z,3.40
2022-09-05T02:45:11.603Z,3.00
2022-09-05T02:46:56.658Z,3.10
2022-09-05T02:53:12.186Z,2.87
2022-09-05T02:57:25.371Z,3.07
2022-09-05T02:57:34.884Z,3.00
2022-09-05T02:59:08.553Z,2.87
2022-09-05T03:01:57.281Z,3.23
2022-09-05T03:04:35.112Z,3.80
2022-09-05T03:07:13.091Z,3.50
2022-09-05T03:10:00.239Z,3.17
2022-09-05T03:13:14.949Z,2.90
2022-09-05T03:16:16.880Z,3.10
2022-09-05T03:19:20.047Z,3.43
2022-09-05T03:22:17.894Z,3.13
2022-09-05T03:25:36.866Z,3.50
2022-09-05T03:28:44.726Z,3.03
2022-09-05T03:31:28.354Z,2.73
2022-09-05T03:34:34.470Z,3.00
2022-09-05T03:37:31.625Z,3.17
2022-09-05T03:40:36.399Z,3.40
2022-09-05T03:43:42.841Z,2.73
2022-09-05T03:46:23.238Z,3.13
2022-09-05T03:49:35.436Z,3.13
2022-09-05T03:57:18.319Z,2.93
2022-09-05T03:57:20.261Z,2.90
2022-09-05T04:07:08.699Z,2.90
2022-09-05T04:08:13.956Z,2.97
2022-09-05T04:08:27.685Z,3.00
2022-09-05T04:10:27.271Z,3.17
2022-09-05T04:13:01.608Z,3.07
2022-09-05T04:15:39.917Z,3.43
2022-09-05T04:18:32.627Z,3.07
2022-09-05T04:21:05.411Z,3.13
2022-09-05T04:23:42.525Z,3.37
2022-09-05T04:26:27.070Z,3.10
2022-09-05T04:29:03.692Z,3.13
2022-09-05T04:31:51.976Z,3.13
2022-09-05T04:34:44.614Z,3.00
2022-09-05T04:37:48.138Z,6.40
2022-09-05T04:40:37.977Z,3.67
2022-09-05T04:43:09.011Z,3.40
2022-09-05T04:45:42.594Z,2.80
2022-09-05T04:48:21.402Z,3.67
2022-09-05T04:51:11.532Z,3.47
2022-09-05T04:53:57.900Z,3.27
2022-09-05T04:56:29.416Z,3.03
2022-09-05T05:02:12.791Z,3.40
2022-09-05T05:06:04.827Z,3.20
2022-09-05T05:06:14.486Z,3.10
2022-09-05T05:07:41.972Z,3.50
2022-09-05T05:12:31.198Z,3.30
2022-09-05T05:17:59.390Z,3.63
2022-09-05T05:18:14.074Z,3.30
2022-09-05T05:19:04.292Z,3.40
2022-09-05T05:21:37.278Z,3.23
2022-09-05T05:24:11.756Z,3.57
2022-09-05T05:26:45.784Z,3.07
2022-09-05T05:29:21.643Z,3.40
2022-09-05T05:31:55.105Z,3.37
2022-09-05T05:34:27.086Z,3.60
2022-09-05T05:37:03.591Z,3.97
2022-09-05T05:39:34.150Z,3.43
2022-09-05T05:42:20.062Z,3.50
2022-09-05T05:44:54.538Z,3.40
2022-09-05T05:47:28.297Z,3.13
2022-09-05T05:50:05.540Z,3.37
2022-09-05T05:53:03.251Z,3.27
2022-09-05T05:56:01.014Z,2.90
2022-09-05T05:58:44.972Z,3.10
2022-09-05T06:01:46.498Z,3.43
2022-09-05T06:04:50.604Z,3.50
2022-09-05T06:07:30.418Z,3.30
2022-09-05T06:14:56.592Z,3.17
2022-09-05T06:15:01.766Z,3.60
2022-09-05T06:17:28.172Z,3.03
2022-09-05T06:22:07.296Z,3.13
2022-09-05T06:24:04.557Z,3.33
2022-09-05T06:27:18.914Z,3.53
2022-09-05T06:29:59.077Z,3.47
2022-09-05T06:33:01.424Z,3.20
2022-09-05T06:35:42.295Z,3.30
2022-09-05T06:38:27.508Z,3.23
2022-09-05T06:41:13.366Z,3.67
2022-09-05T06:44:13.605Z,3.17
2022-09-05T06:46:54.689Z,3.50
2022-09-05T06:49:46.085Z,3.10
2022-09-05T06:53:08.223Z,3.47
2022-09-05T06:56:00.864Z,3.20
2022-09-05T06:59:00.167Z,2.97
2022-09-05T07:01:59.596Z,3.10
2022-09-05T07:05:36.891Z,3.43
2022-09-05T07:07:27.449Z,3.03
2022-09-05T07:09:59.425Z,3.10
2022-09-05T07:12:30.883Z,3.47
2022-09-05T07:15:14.622Z,3.43
2022-09-05T07:18:10.157Z,3.30
2022-09-05T07:21:16.257Z,3.00
2022-09-05T07:24:07.194Z,3.20
2022-09-05T07:26:49.694Z,3.63
2022-09-05T07:29:23.938Z,3.40
2022-09-05T07:31:55.320Z,3.40
2022-09-05T07:34:27.928Z,3.43
2022-09-05T07:37:15.195Z,3.73
2022-09-05T07:39:49.084Z,3.47
2022-09-05T07:42:22.738Z,3.60
2022-09-05T07:44:56.462Z,3.30
2022-09-05T07:47:29.782Z,3.20
2022-09-05T07:51:00.695Z,2.50
2022-09-05T07:56:50.858Z,2.73
2022-09-05T07:57:02.367Z,2.50
2022-09-05T07:58:41.788Z,2.60
2022-09-05T08:01:12.828Z,2.40
2022-09-05T08:03:44.309Z,2.53
2022-09-05T08:06:39.877Z,2.30
2022-09-05T08:10:02.256Z,3.20
2022-09-05T08:12:11.385Z,2.63
2022-09-05T08:14:46.304Z,2.50
2022-09-05T08:17:19.277Z,2.30
2022-09-05T08:20:10.266Z,2.30
2022-09-05T08:22:52.186Z,2.80
2022-09-05T08:25:25.561Z,2.27
2022-09-05T08:28:06.277Z,2.60
2022-09-05T08:30:41.324Z,2.60
2022-09-05T08:33:14.596Z,2.13
2022-09-05T08:35:48.992Z,2.10
2022-09-05T08:38:21.670Z,2.23
2022-09-05T08:40:59.448Z,2.70
2022-09-05T08:46:41.810Z,2.40
2022-09-05T08:46:47.526Z,2.67
2022-09-05T08:49:45.530Z,2.87
2022-09-05T08:52:27.666Z,2.60
2022-09-05T08:55:07.498Z,2.97
2022-09-05T08:58:03.245Z,2.43
2022-09-05T09:00:36.017Z,2.67
2022-09-05T09:03:12.742Z,3.00
2022-09-05T09:06:15.633Z,2.67
2022-09-05T09:09:05.743Z,2.80
2022-09-05T09:11:37.123Z,2.67
2022-09-05T09:14:33.150Z,2.63
2022-09-05T09:17:10.119Z,2.60
2022-09-05T09:19:48.995Z,2.73
2022-09-05T09:22:29.617Z,3.00
2022-09-05T09:25:15.366Z,2.60
2022-09-05T09:28:47.550Z,2.80
2022-09-05T09:31:05.683Z,2.53
2022-09-05T09:33:41.528Z,2.70
2022-09-05T09:36:24.283Z,2.20
2022-09-05T09:39:37.448Z,2.30
2022-09-05T09:42:32.525Z,2.70
2022-09-05T09:45:30.716Z,2.07
2022-09-05T09:48:19.456Z,2.97
2022-09-05T09:51:08.539Z,3.00
2022-09-05T09:53:50.601Z,3.87
2022-09-05T09:56:56.957Z,2.27
2022-09-05T09:59:54.573Z,2.60
2022-09-05T10:07:21.282Z,2.33
2022-09-05T10:10:50.759Z,2.20
2022-09-05T10:10:52.849Z,2.60
2022-09-05T10:11:53.614Z,2.30
2022-09-05T10:14:54.952Z,2.40
2022-09-05T10:17:47.817Z,2.13
2022-09-05T10:20:35.959Z,1.95
2022-09-05T10:23:44.255Z,1.83
2022-09-05T10:26:50.303Z,2.42
2022-09-05T10:29:44.023Z,2.03
2022-09-05T10:35:09.738Z,1.98
2022-09-05T10:35:24.812Z,1.80
2022-09-05T10:38:00.754Z,2.08
2022-09-05T10:41:05.155Z,2.28
2022-09-05T10:43:29.087Z,2.20
2022-09-05T10:46:09.308Z,2.10
2022-09-05T10:48:52.922Z,2.00
2022-09-05T10:51:30.495Z,2.10
2022-09-05T10:54:15.401Z,1.92
2022-09-05T10:56:48.452Z,2.15
2022-09-05T11:01:52.346Z,1.70
2022-09-05T11:02:29.397Z,1.73
2022-09-05T11:05:16.341Z,1.50
2022-09-05T11:08:01.859Z,1.80
2022-09-05T11:10:35.898Z,1.70
2022-09-05T11:13:22.383Z,1.80
2022-09-05T11:16:13.480Z,2.05
2022-09-05T11:18:57.158Z,1.70
2022-09-05T11:21:39.450Z,1.70
2022-09-05T11:24:27.126Z,1.75
2022-09-05T11:27:24.275Z,2.10
2022-09-05T11:29:51.857Z,1.52
2022-09-05T11:37:41.651Z,1.67
2022-09-05T11:40:02.467Z,1.70
2022-09-05T11:40:08.919Z,2.42
2022-09-05T11:42:18.464Z,1.67
2022-09-05T11:45:11.105Z,1.60
2022-09-05T11:48:08.471Z,1.48
2022-09-05T11:51:02.003Z,1.65
2022-09-05T11:53:59.536Z,1.80
2022-09-05T11:57:12.776Z,1.70
2022-09-05T12:00:18.569Z,1.50
2022-09-05T12:03:57.661Z,1.70
2022-09-05T12:06:36.451Z,1.80
2022-09-05T12:09:20.256Z,1.67
2022-09-05T12:12:19.317Z,1.73
2022-09-05T12:15:18.008Z,1.55
2022-09-05T12:18:00.667Z,1.58
2022-09-05T12:20:43.341Z,1.60
2022-09-05T12:23:47.533Z,1.50
2022-09-05T12:27:40.032Z,1.70
2022-09-05T12:29:29.554Z,1.80
2022-09-05T12:34:23.493Z,1.90
2022-09-05T12:36:09.946Z,1.90
2022-09-05T12:40:57.405Z,1.70
2022-09-05T12:41:37.662Z,1.83
2022-09-05T12:44:31.188Z,2.05
2022-09-05T12:46:26.293Z,1.70
2022-09-05T12:49:07.155Z,1.65
2022-09-05T12:51:46.705Z,1.77
2022-09-05T12:54:33.665Z,1.65
2022-09-05T13:02:57.874Z,2.00
2022-09-05T13:03:09.504Z,1.80
2022-09-05T13:03:11.950Z,1.90
2022-09-05T13:06:01.388Z,1.90
2022-09-05T13:08:43.952Z,1.80
2022-09-05T13:14:48.634Z,1.55
2022-09-05T13:14:57.661Z,1.80
2022-09-05T13:16:59.350Z,1.83
2022-09-05T13:19:37.241Z,2.03
2022-09-05T13:22:08.709Z,1.70
2022-09-05T13:24:41.362Z,1.73
2022-09-05T13:27:15.540Z,1.80
2022-09-05T13:31:04.538Z,1.52
2022-09-05T13:38:10.555Z,1.60
2022-09-05T13:38:21.304Z,1.70
2022-09-05T13:38:50.188Z,2.00
2022-09-05T13:41:28.395Z,1.55
2022-09-05T13:44:00.325Z,1.40
2022-09-05T13:46:58.569Z,1.40
2022-09-05T13:49:32.180Z,1.88
2022-09-05T13:52:27.944Z,1.55
2022-09-05T13:55:10.551Z,1.40
2022-09-05T13:57:43.247Z,1.45
2022-09-05T14:00:44.376Z,1.50
2022-09-05T14:03:46.771Z,1.40
2022-09-05T14:07:43.790Z,1.60
2022-09-05T14:10:21.866Z,1.80
2022-09-05T14:13:00.861Z,1.42
2022-09-05T14:15:42.558Z,1.33
2022-09-05T14:18:21.341Z,1.40
2022-09-05T14:21:13.292Z,1.40
2022-09-05T14:23:53.539Z,1.40
2022-09-05T14:26:28.896Z,1.30
2022-09-05T14:29:07.095Z,1.40
2022-09-05T14:37:37.098Z,1.40
2022-09-05T14:37:42.241Z,1.20
2022-09-05T14:38:09.267Z,1.13
2022-09-05T14:41:07.742Z,1.20
2022-09-05T14:44:13.049Z,1.20
2022-09-05T14:47:10.729Z,1.15
2022-09-05T14:50:17.970Z,1.30
2022-09-05T14:55:57.220Z,1.20
2022-09-05T15:02:43.732Z,1.30
2022-09-05T15:02:46.363Z,1.30
2022-09-05T15:04:44.664Z,1.40
2022-09-05T15:07:19.411Z,1.13
2022-09-05T15:12:15.294Z,1.30
2022-09-05T15:12:49.507Z,1.10
2022-09-05T15:15:28.669Z,1.40
2022-09-05T15:18:02.445Z,2.63
2022-09-05T15:20:35.747Z,3.28
2022-09-05T15:23:11.359Z,1.98
2022-09-05T15:25:47.919Z,1.40
2022-09-05T15:28:21.780Z,1.42
2022-09-05T15:30:58.177Z,1.30
2022-09-05T15:33:30.216Z,1.40
2022-09-05T15:35:59.746Z,1.50
2022-09-05T15:38:31.230Z,1.60
2022-09-05T15:41:19.697Z,1.50
2022-09-05T15:43:56.728Z,1.70
2022-09-05T15:46:34.307Z,1.38
2022-09-05T15:49:10.068Z,1.42
2022-09-05T15:51:45.679Z,1.42
2022-09-05T15:54:36.027Z,1.65
2022-09-05T15:57:14.482Z,1.60
2022-09-05T15:59:49.395Z,2.55
2022-09-05T16:02:21.844Z,2.50
2022-09-05T16:10:33.646Z,1.60
2022-09-05T16:10:42.751Z,1.30
2022-09-05T16:11:06.961Z,1.50
2022-09-05T16:13:53.728Z,1.63
2022-09-05T16:23:17.828Z,1.88
2022-09-05T16:23:30.677Z,1.85
2022-09-05T16:23:33.475Z,2.00
2022-09-05T16:25:08.173Z,1.80
2022-09-05T16:27:43.612Z,2.00
2022-09-05T16:30:15.582Z,2.47
2022-09-05T16:32:51.330Z,2.53
2022-09-05T16:35:26.239Z,2.47
2022-09-05T16:38:03.927Z,3.38
2022-09-05T16:40:35.629Z,2.78
2022-09-05T16:43:08.322Z,3.22
2022-09-05T16:45:50.055Z,3.60
2022-09-05T16:48:36.484Z,4.18
2022-09-05T16:51:15.070Z,3.67
2022-09-05T16:53:58.235Z,2.60
2022-09-05T16:56:31.058Z,3.38
2022-09-05T16:59:04.072Z,3.05
2022-09-05T17:01:47.902Z,7.15
2022-09-05T17:04:28.157Z,7.38
2022-09-05T17:06:59.996Z,5.00
2022-09-05T17:09:38.410Z,3.67
2022-09-05T17:12:11.035Z,3.40
2022-09-05T17:14:42.796Z,4.03
2022-09-05T17:17:35.997Z,4.22
2022-09-05T17:20:10.724Z,3.50
2022-09-05T17:29:17.194Z,5.72
2022-09-05T17:29:33.326Z,3.47
2022-09-05T17:29:35.287Z,3.13
2022-09-05T17:31:53.500Z,2.60
2022-09-05T17:34:49.695Z,2.80
2022-09-05T17:37:39.884Z,2.47
2022-09-05T17:40:48.120Z,2.63
2022-09-05T17:43:28.781Z,2.27
2022-09-05T17:46:14.221Z,2.57
2022-09-05T17:49:18.430Z,3.40
2022-09-05T17:52:23.097Z,3.13
2022-09-05T17:54:53.882Z,3.50
2022-09-05T17:57:41.146Z,3.23
2022-09-05T18:01:00.285Z,2.70
2022-09-05T18:04:16.035Z,3.10
2022-09-05T18:06:54.076Z,2.60
2022-09-05T18:10:00.051Z,2.20
2022-09-05T18:13:13.870Z,2.40
2022-09-05T18:16:11.584Z,2.50
2022-09-05T18:21:51.586Z,2.57
2022-09-05T18:24:33.499Z,2.53
2022-09-05T18:27:36.495Z,2.47
2022-09-05T18:30:07.982Z,2.97
2022-09-05T18:32:45.509Z,2.50
2022-09-05T18:35:32.195Z,2.40
2022-09-05T18:38:50.172Z,2.67
2022-09-05T18:41:21.741Z,2.60
2022-09-05T18:44:13.322Z,2.70
2022-09-05T18:46:47.802Z,2.60
2022-09-05T18:50:22.429Z,2.40
2022-09-05T18:52:23.361Z,2.53
2022-09-05T18:56:09.811Z,2.47
2022-09-05T18:57:50.879Z,2.40
2022-09-05T19:00:35.157Z,2.30
2022-09-05T19:03:18.885Z,2.53
2022-09-05T19:05:50.882Z,2.33
2022-09-05T19:08:29.228Z,2.40
2022-09-05T19:11:27.482Z,2.67
2022-09-05T19:13:59.856Z,2.57
2022-09-05T19:16:47.261Z,2.60
2022-09-05T19:19:19.427Z,2.97
2022-09-05T19:22:09.064Z,3.10
2022-09-05T19:24:45.495Z,3.30
2022-09-05T19:28:09.694Z,3.10
2022-09-05T19:36:54.136Z,2.90
2022-09-05T19:36:59.990Z,2.70
2022-09-05T19:37:22.765Z,2.70
2022-09-05T19:44:07.686Z,2.60
2022-09-05T19:47:28.431Z,2.90
2022-09-05T19:47:40.430Z,2.73
2022-09-05T19:47:57.626Z,2.87
2022-09-05T19:50:21.500Z,2.93
2022-09-05T19:52:53.207Z,2.80
2022-09-05T19:55:23.331Z,2.83
2022-09-05T19:58:19.316Z,2.87
2022-09-05T20:00:42.472Z,2.77
2022-09-05T20:03:21.465Z,2.53
2022-09-05T20:05:51.427Z,2.97
2022-09-05T20:08:32.815Z,2.70
2022-09-05T20:11:06.658Z,3.50
2022-09-05T20:13:35.075Z,3.03
2022-09-05T20:16:03.700Z,2.53
2022-09-05T20:18:39.488Z,3.83
2022-09-05T20:21:11.961Z,3.37
2022-09-05T20:23:44.947Z,3.27
2022-09-05T20:26:14.258Z,3.03
2022-09-05T20:28:45.728Z,2.83
2022-09-05T20:31:18.959Z,3.13
2022-09-05T20:33:51.726Z,3.30
2022-09-05T20:42:45.724Z,3.00
2022-09-05T20:43:29.087Z,3.07
2022-09-05T20:43:32.825Z,3.30
2022-09-05T20:45:02.093Z,3.60
2022-09-05T20:52:57.168Z,3.53
2022-09-05T20:54:16.434Z,3.40
2022-09-05T20:54:21.731Z,3.23
2022-09-05T20:56:22.423Z,3.30
2022-09-05T20:58:55.570Z,3.37
2022-09-05T21:01:24.500Z,2.83
2022-09-05T21:03:57.310Z,3.43
2022-09-05T21:06:33.515Z,7.40
2022-09-05T21:09:23.799Z,3.63
2022-09-05T21:11:58.563Z,3.40
2022-09-05T21:14:29.966Z,3.73
2022-09-05T21:17:00.611Z,3.30
2022-09-05T21:19:31.502Z,3.00
2022-09-05T21:22:04.491Z,3.00
2022-09-05T21:24:32.665Z,3.37
2022-09-05T21:27:19.344Z,3.07
2022-09-05T21:29:58.634Z,3.40
2022-09-05T21:32:36.244Z,3.30
2022-09-05T21:35:33.723Z,3.43
2022-09-05T21:38:01.491Z,3.40
2022-09-05T21:40:29.618Z,3.57
2022-09-05T21:47:35.623Z,3.13
2022-09-05T21:47:41.846Z,2.90
2022-09-05T21:48:40.002Z,3.70
2022-09-05T21:51:09.901Z,3.40
2022-09-05T21:56:40.225Z,3.30
2022-09-05T21:59:24.055Z,3.23
2022-09-05T21:59:46.410Z,3.80
2022-09-05T22:02:16.309Z,3.20
2022-09-05T22:04:44.580Z,3.27
2022-09-05T22:07:21.711Z,3.50
2022-09-05T22:10:03.189Z,3.37
2022-09-05T22:12:33.723Z,3.03
2022-09-05T22:15:27.739Z,3.20
2022-09-05T22:18:07.663Z,4.07
2022-09-05T22:20:44.090Z,3.53
2022-09-05T22:23:12.705Z,3.67
2022-09-05T22:25:41.043Z,3.70
2022-09-05T22:28:12.942Z,3.63
2022-09-05T22:30:43.658Z,3.30
2022-09-05T22:33:12.954Z,3.80
2022-09-05T22:35:41.439Z,3.57
2022-09-05T22:38:16.396Z,3.53
2022-09-05T22:40:46.004Z,3.67
2022-09-05T22:43:16.017Z,3.90
2022-09-05T22:45:45.448Z,3.47
2022-09-05T22:48:14.609Z,3.43
2022-09-05T22:50:43.610Z,3.40
2022-09-05T22:53:11.723Z,3.47
2022-09-05T22:55:41.535Z,3.47
2022-09-05T22:58:11.341Z,3.40
2022-09-05T23:00:39.396Z,3.50
2022-09-05T23:03:09.059Z,3.80
2022-09-05T23:05:37.013Z,3.30
2022-09-05T23:08:06.776Z,3.30
2022-09-05T23:10:36.226Z,3.43
2022-09-05T23:13:05.690Z,3.27
2022-09-05T23:15:33.832Z,3.40
2022-09-05T23:18:02.246Z,3.60
2022-09-05T23:20:33.024Z,3.50
2022-09-05T23:23:05.297Z,3.30
2022-09-05T23:25:33.835Z,3.63
2022-09-05T23:28:06.157Z,3.73
2022-09-05T23:30:34.160Z,3.47
2022-09-05T23:33:02.173Z,3.60
2022-09-05T23:35:31.708Z,3.50
2022-09-05T23:37:59.666Z,3.40
2022-09-05T23:40:27.856Z,3.30
2022-09-05T23:42:57.303Z,3.43
2022-09-05T23:45:25.846Z,3.70
2022-09-05T23:47:54.366Z,3.40
2022-09-05T23:50:22.441Z,3.30
2022-09-05T23:52:52.032Z,3.23
2022-09-05T23:55:23.242Z,3.57
2022-09-05T23:57:57.098Z,3.60
